Terminal Aerodrome Forecast
Issued by NWS

Home | Current Version | Previous Version | Text Only | Print | Product List | Glossary On
Versions: 1 2 3 4 5 6 7 8 9 10 11 12 13 14 15 16
000
FTUS43 KDVN 182300
TAFCID
TAF
KCID 182324Z 1900/1924 20006KT P6SM BKN035
     FM190800 17008KT P6SM -SN SCT030 BKN060
     FM191000 23009KT 6SM -SN BR SCT020 OVC035
     FM191200 28011KT P6SM SCT035 BKN060
     FM191500 29018G24KT P6SM SCT035=

USA.gov is the U.S. government's official web portal to all federal, state and local government web resources and services.